createdAt,value
2023-02-11T00:00:20.594Z,97036.38
2023-02-11T00:02:48.137Z,97037.13
2023-02-11T00:05:15.161Z,97038.00
2023-02-11T00:07:41.807Z,97030.31
2023-02-11T00:10:08.884Z,97032.75
2023-02-11T00:12:35.644Z,97025.16
2023-02-11T00:15:02.405Z,97014.06
2023-02-11T00:17:29.455Z,97032.03
2023-02-11T00:19:55.875Z,97034.09
2023-02-11T00:22:22.341Z,97042.34
2023-02-11T00:24:48.985Z,97038.44
2023-02-11T00:27:15.420Z,97041.66
2023-02-11T00:29:41.838Z,97009.13
2023-02-11T00:32:09.496Z,97035.78
2023-02-11T00:34:37.422Z,97032.13
2023-02-11T00:37:04.651Z,97030.19
2023-02-11T00:39:31.197Z,97028.94
2023-02-11T00:41:58.200Z,97031.34
2023-02-11T00:44:24.889Z,97025.50
2023-02-11T00:46:51.300Z,97021.59
2023-02-11T00:49:18.229Z,97016.19
2023-02-11T00:51:45.266Z,97022.72
2023-02-11T00:54:12.429Z,97016.16
2023-02-11T00:56:38.866Z,97014.81
2023-02-11T00:59:05.283Z,97008.38
2023-02-11T01:01:31.707Z,97000.66
2023-02-11T01:03:58.324Z,97020.94
2023-02-11T01:06:24.975Z,97002.75
2023-02-11T01:08:52.105Z,97007.41
2023-02-11T01:11:20.741Z,97009.84
2023-02-11T01:13:47.687Z,97002.75
2023-02-11T01:16:15.811Z,97006.44
2023-02-11T01:18:43.604Z,97002.69
2023-02-11T01:21:10.110Z,97000.16
2023-02-11T01:23:36.592Z,97007.31
2023-02-11T01:26:05.032Z,97010.31
2023-02-11T01:28:32.092Z,96992.06
2023-02-11T01:31:00.332Z,97010.50
2023-02-11T01:33:26.825Z,97004.13
2023-02-11T01:35:53.612Z,96994.66
2023-02-11T01:38:22.740Z,96996.50
2023-02-11T01:40:51.648Z,97002.22
2023-02-11T01:43:19.029Z,97004.13
2023-02-11T01:45:59.673Z,97012.91
2023-02-11T01:48:29.730Z,97003.78
2023-02-11T01:51:01.343Z,97008.09
2023-02-11T01:53:48.084Z,97010.41
2023-02-11T01:56:36.966Z,97005.53
2023-02-11T01:59:08.272Z,97002.88
2023-02-11T02:01:36.582Z,96989.94
2023-02-11T02:04:06.070Z,97000.75
2023-02-11T02:06:36.897Z,97009.75
2023-02-11T02:09:06.124Z,97002.59
2023-02-11T02:11:32.897Z,96997.78
2023-02-11T02:13:59.344Z,96997.41
2023-02-11T02:16:32.113Z,96994.72
2023-02-11T02:19:23.014Z,96984.97
2023-02-11T02:22:32.294Z,96986.31
2023-02-11T02:25:13.491Z,96974.84
2023-02-11T02:27:51.668Z,96984.91
2023-02-11T02:30:39.041Z,96972.84
2023-02-11T02:33:24.564Z,96961.47
2023-02-11T02:36:02.290Z,96964.88
2023-02-11T02:38:33.603Z,96952.97
2023-02-11T02:41:05.879Z,96951.84
2023-02-11T02:43:34.106Z,96960.50
2023-02-11T02:46:11.405Z,96942.81
2023-02-11T02:48:38.608Z,96951.22
2023-02-11T02:51:18.336Z,96953.28
2023-02-11T02:53:54.652Z,96948.31
2023-02-11T02:56:30.163Z,96953.50
2023-02-11T02:59:28.557Z,96939.78
2023-02-11T03:02:04.900Z,96934.13
2023-02-11T03:04:41.238Z,96931.97
2023-02-11T03:07:17.551Z,96929.97
2023-02-11T03:09:49.422Z,96927.25
2023-02-11T03:12:17.235Z,96927.47
2023-02-11T03:14:44.648Z,96924.53
2023-02-11T03:17:11.424Z,96915.56
2023-02-11T03:19:40.810Z,96907.22
2023-02-11T03:22:13.289Z,96909.88
2023-02-11T03:24:41.473Z,96911.28
2023-02-11T03:27:15.315Z,96905.31
2023-02-11T03:29:48.565Z,96905.81
2023-02-11T03:32:19.993Z,96897.75
2023-02-11T03:34:53.473Z,96912.75
2023-02-11T03:37:23.752Z,96908.91
2023-02-11T03:39:56.125Z,96894.69
2023-02-11T03:42:26.194Z,96899.72
2023-02-11T03:44:58.060Z,96898.63
2023-02-11T03:47:27.170Z,96915.56
2023-02-11T03:49:57.157Z,96914.81
2023-02-11T03:52:25.807Z,96892.13
2023-02-11T03:54:57.694Z,96905.78
2023-02-11T03:57:24.064Z,96901.59
2023-02-11T03:59:52.445Z,96913.19
2023-02-11T04:02:19.214Z,96915.09
2023-02-11T04:04:46.833Z,96921.56
2023-02-11T04:07:13.881Z,96909.31
2023-02-11T04:09:40.250Z,96910.19
2023-02-11T04:12:07.262Z,96911.91
2023-02-11T04:14:33.678Z,96918.16
2023-02-11T04:17:00.104Z,96912.53
2023-02-11T04:19:26.597Z,96916.16
2023-02-11T04:21:52.997Z,96914.00
2023-02-11T04:24:20.038Z,96916.16
2023-02-11T04:26:46.410Z,96926.22
2023-02-11T04:29:12.847Z,96916.22
2023-02-11T04:31:39.324Z,96918.22
2023-02-11T04:34:05.919Z,96932.56
2023-02-11T04:36:32.340Z,96926.94
2023-02-11T04:38:58.726Z,96932.28
2023-02-11T04:41:25.827Z,96935.75
2023-02-11T04:43:52.260Z,96944.72
2023-02-11T04:46:18.663Z,96941.09
2023-02-11T04:48:45.130Z,96944.09
2023-02-11T04:51:11.606Z,96947.66
2023-02-11T04:53:38.162Z,96953.56
2023-02-11T04:56:05.146Z,96951.28
2023-02-11T04:58:32.214Z,96961.47
2023-02-11T05:01:05.858Z,96960.91
2023-02-11T05:03:32.263Z,96962.25
2023-02-11T05:05:58.691Z,96958.69
2023-02-11T05:08:25.091Z,96977.31
2023-02-11T05:10:51.475Z,96966.16
2023-02-11T05:13:17.885Z,96968.88
2023-02-11T05:15:45.043Z,96962.50
2023-02-11T05:18:11.596Z,96966.84
2023-02-11T05:20:38.030Z,96962.69
2023-02-11T05:23:04.546Z,96957.13
2023-02-11T05:25:30.930Z,96953.44
2023-02-11T05:27:57.342Z,96948.88
2023-02-11T05:30:23.914Z,96951.38
2023-02-11T05:32:51.298Z,96949.41
2023-02-11T05:35:17.927Z,96949.13
2023-02-11T05:37:44.513Z,96950.63
2023-02-11T05:40:11.619Z,96940.38
2023-02-11T05:42:38.022Z,96935.81
2023-02-11T05:45:05.254Z,96944.25
2023-02-11T05:47:31.626Z,96942.41
2023-02-11T05:49:58.816Z,96944.84
2023-02-11T05:52:25.332Z,96943.69
2023-02-11T05:54:51.734Z,96932.19
2023-02-11T05:57:19.177Z,96936.47
2023-02-11T05:59:45.646Z,96930.53
2023-02-11T06:02:12.541Z,96927.38
2023-02-11T06:04:39.057Z,96919.16
2023-02-11T06:07:06.162Z,96923.59
2023-02-11T06:09:35.218Z,96921.41
2023-02-11T06:12:05.057Z,96924.44
2023-02-11T06:14:32.482Z,96918.19
2023-02-11T06:17:02.095Z,96909.00
2023-02-11T06:19:28.716Z,96919.25
2023-02-11T06:21:56.023Z,96927.47
2023-02-11T06:24:47.759Z,96919.97
2023-02-11T06:27:09.682Z,96930.63
2023-02-11T06:29:36.254Z,96914.22
2023-02-11T06:32:03.229Z,96919.66
2023-02-11T06:34:29.814Z,96929.59
2023-02-11T06:36:56.479Z,96932.66
2023-02-11T06:39:23.646Z,96913.25
2023-02-11T06:41:50.059Z,96932.41
2023-02-11T06:44:16.629Z,96928.19
2023-02-11T06:46:43.105Z,96927.44
2023-02-11T06:49:10.010Z,96931.00
2023-02-11T06:51:36.694Z,96925.66
2023-02-11T06:54:06.858Z,96920.69
2023-02-11T06:56:34.305Z,96911.25
2023-02-11T06:59:00.831Z,96932.13
2023-02-11T07:01:31.888Z,96920.22
2023-02-11T07:03:58.513Z,96931.81
2023-02-11T07:06:27.113Z,96925.72
2023-02-11T07:08:54.207Z,96921.94
2023-02-11T07:11:23.536Z,96941.16
2023-02-11T07:13:51.980Z,96938.88
2023-02-11T07:16:20.358Z,96912.44
2023-02-11T07:18:48.233Z,96939.19
2023-02-11T07:21:17.057Z,96958.47
2023-02-11T07:23:43.636Z,96954.06
2023-02-11T07:26:12.926Z,96945.63
2023-02-11T07:28:40.880Z,96936.41
2023-02-11T07:31:08.682Z,96930.81
2023-02-11T07:33:35.977Z,96919.66
2023-02-11T07:36:04.156Z,96929.19
2023-02-11T07:38:31.096Z,96923.63
2023-02-11T07:41:00.122Z,96915.16
2023-02-11T07:43:26.853Z,96915.97
2023-02-11T07:45:53.416Z,96931.84
2023-02-11T07:48:20.578Z,96931.41
2023-02-11T07:50:47.122Z,96931.75
2023-02-11T07:53:13.580Z,96933.81
2023-02-11T07:55:40.290Z,96929.22
2023-02-11T07:58:06.757Z,96929.06
2023-02-11T08:00:33.270Z,96924.78
2023-02-11T08:03:01.434Z,96921.13
2023-02-11T08:05:29.710Z,96924.91
2023-02-11T08:07:56.255Z,96923.16
2023-02-11T08:10:22.805Z,96905.75
2023-02-11T08:12:49.323Z,96906.56
2023-02-11T08:15:16.133Z,96887.06
2023-02-11T08:17:42.557Z,96896.59
2023-02-11T08:20:10.071Z,96898.56
2023-02-11T08:22:37.264Z,96899.97
2023-02-11T08:25:04.479Z,96904.06
2023-02-11T08:27:37.105Z,96906.53
2023-02-11T08:30:04.539Z,96885.97
2023-02-11T08:32:30.991Z,96900.56
2023-02-11T08:34:57.640Z,96895.63
2023-02-11T08:37:24.039Z,96907.66
2023-02-11T08:39:51.159Z,96909.91
2023-02-11T08:42:17.670Z,96907.38
2023-02-11T08:44:45.865Z,96916.19
2023-02-11T08:47:12.357Z,96907.81
2023-02-11T08:49:41.210Z,96916.59
2023-02-11T08:52:08.007Z,96925.72
2023-02-11T08:54:34.558Z,96923.47
2023-02-11T08:57:01.645Z,96930.34
2023-02-11T08:59:28.384Z,96925.50
2023-02-11T09:01:55.101Z,96919.41
2023-02-11T09:04:21.680Z,96910.38
2023-02-11T09:06:48.351Z,96894.69
2023-02-11T09:09:15.843Z,96891.75
2023-02-11T09:11:44.932Z,96907.53
2023-02-11T09:14:19.385Z,96905.94
2023-02-11T09:16:46.412Z,96910.84
2023-02-11T09:19:13.103Z,96890.28
2023-02-11T09:21:41.157Z,96879.00
2023-02-11T09:24:10.754Z,96903.84
2023-02-11T09:26:42.764Z,96893.81
2023-02-11T09:29:09.702Z,96898.59
2023-02-11T09:31:37.081Z,96890.47
2023-02-11T09:34:05.736Z,96886.81
2023-02-11T09:36:37.583Z,96890.16
2023-02-11T09:39:11.086Z,96905.00
2023-02-11T09:41:52.336Z,96906.38
2023-02-11T09:44:24.245Z,96901.13
2023-02-11T09:46:55.665Z,96896.44
2023-02-11T09:49:27.390Z,96885.94
2023-02-11T09:51:59.998Z,96901.53
2023-02-11T09:54:33.809Z,96900.94
2023-02-11T09:57:00.506Z,96937.69
2023-02-11T09:59:27.379Z,96897.97
2023-02-11T10:02:00.265Z,96900.91
2023-02-11T10:04:47.837Z,96879.97
2023-02-11T10:07:22.350Z,96886.63
2023-02-11T10:10:03.286Z,96882.19
2023-02-11T10:12:42.164Z,96871.13
2023-02-11T10:15:17.388Z,96870.28
2023-02-11T10:18:07.027Z,96878.59
2023-02-11T10:20:37.357Z,96867.59
2023-02-11T10:23:13.242Z,96862.88
2023-02-11T10:25:46.892Z,96861.19
2023-02-11T10:28:16.687Z,96862.44
2023-02-11T10:30:52.636Z,96853.50
2023-02-11T10:33:26.373Z,96843.44
2023-02-11T10:35:52.851Z,96860.72
2023-02-11T10:38:19.273Z,96871.75
2023-02-11T10:40:49.403Z,96875.59
2023-02-11T10:43:19.594Z,96878.13
2023-02-11T10:45:48.957Z,96866.41
2023-02-11T10:48:40.276Z,96862.66
2023-02-11T10:51:14.549Z,96857.03
2023-02-11T10:53:41.643Z,96856.56
2023-02-11T10:56:11.708Z,96857.94
2023-02-11T10:58:43.829Z,96846.09
2023-02-11T11:01:24.318Z,96864.72
2023-02-11T11:03:52.684Z,96863.09
2023-02-11T11:06:30.133Z,96854.78
2023-02-11T11:08:56.629Z,96854.81
2023-02-11T11:11:24.730Z,96861.88
2023-02-11T11:14:00.420Z,96841.63
2023-02-11T11:16:31.706Z,96840.34
2023-02-11T11:19:22.808Z,96836.50
2023-02-11T11:21:51.300Z,96821.72
2023-02-11T11:24:22.690Z,96839.88
2023-02-11T11:26:54.611Z,96839.44
2023-02-11T11:29:27.964Z,96832.06
2023-02-11T11:31:57.201Z,96834.91
2023-02-11T11:34:31.008Z,96836.00
2023-02-11T11:36:59.070Z,96814.69
2023-02-11T11:39:29.121Z,96832.97
2023-02-11T11:42:00.578Z,96808.91
2023-02-11T11:44:30.481Z,96815.47
2023-02-11T11:47:32.465Z,96807.81
2023-02-11T11:50:25.295Z,96818.75
2023-02-11T11:53:00.859Z,96818.50
2023-02-11T11:55:34.081Z,96821.81
2023-02-11T11:58:00.581Z,96823.56
2023-02-11T12:00:34.828Z,96836.53
2023-02-11T12:03:31.917Z,96834.53
2023-02-11T12:06:11.167Z,96837.31
2023-02-11T12:08:46.456Z,96830.13
2023-02-11T12:11:24.591Z,96818.22
2023-02-11T12:14:04.351Z,96817.09
2023-02-11T12:16:39.830Z,96817.69
2023-02-11T12:19:35.221Z,96799.31
2023-02-11T12:22:10.100Z,96818.50
2023-02-11T12:24:52.109Z,96808.88
2023-02-11T12:27:27.913Z,96822.41
2023-02-11T12:30:03.595Z,96825.41
2023-02-11T12:32:38.819Z,96825.88
2023-02-11T12:35:15.609Z,96813.97
2023-02-11T12:37:58.238Z,96809.25
2023-02-11T12:40:34.485Z,96808.94
2023-02-11T12:43:16.753Z,96800.53
2023-02-11T12:46:08.730Z,96795.88
2023-02-11T12:48:50.958Z,96792.09
2023-02-11T12:51:31.262Z,96781.63
2023-02-11T12:54:27.685Z,96783.94
2023-02-11T12:57:01.947Z,96781.78
2023-02-11T12:59:38.027Z,96784.66
2023-02-11T13:02:18.739Z,96769.03
2023-02-11T13:04:49.941Z,96766.22
2023-02-11T13:07:22.764Z,96769.16
2023-02-11T13:09:57.794Z,96778.28
2023-02-11T13:12:45.400Z,96775.00
2023-02-11T13:15:14.310Z,96768.28
2023-02-11T13:17:48.039Z,96768.41
2023-02-11T13:20:23.025Z,96759.59
2023-02-11T13:22:58.511Z,96762.41
2023-02-11T13:25:31.998Z,96754.97
2023-02-11T13:28:10.790Z,96753.00
2023-02-11T13:30:46.203Z,96750.44
2023-02-11T13:33:32.369Z,96733.38
2023-02-11T13:36:16.640Z,96741.25
2023-02-11T13:38:52.790Z,96738.75
2023-02-11T13:41:26.647Z,96743.66
2023-02-11T13:44:02.460Z,96749.84
2023-02-11T13:46:47.048Z,96743.44
2023-02-11T13:49:19.596Z,96733.22
2023-02-11T13:51:46.714Z,96733.03
2023-02-11T13:54:23.651Z,96739.81
2023-02-11T13:57:35.028Z,96718.19
2023-02-11T14:00:17.951Z,96740.28
2023-02-11T14:03:02.469Z,96743.81
2023-02-11T14:05:48.942Z,96735.66
2023-02-11T14:08:40.202Z,96740.50
2023-02-11T14:11:26.704Z,96742.25
2023-02-11T14:14:14.502Z,96740.03
2023-02-11T14:17:13.475Z,96739.16
2023-02-11T14:19:42.978Z,96735.66
2023-02-11T14:22:15.760Z,96731.09
2023-02-11T14:24:49.228Z,96733.41
2023-02-11T14:27:22.433Z,96732.44
2023-02-11T14:30:01.926Z,96732.53
2023-02-11T14:32:43.259Z,96736.41
2023-02-11T14:35:22.592Z,96738.06
2023-02-11T14:37:57.484Z,96744.41
2023-02-11T14:40:31.845Z,96746.81
2023-02-11T14:43:07.028Z,96753.00
2023-02-11T14:45:36.604Z,96753.44
2023-02-11T14:48:07.474Z,96764.97
2023-02-11T14:50:41.329Z,96755.84
2023-02-11T14:53:14.585Z,96745.88
2023-02-11T14:55:43.097Z,96744.72
2023-02-11T14:58:15.944Z,96739.59
2023-02-11T15:00:57.704Z,96744.44
2023-02-11T15:03:35.470Z,96763.75
2023-02-11T15:06:05.675Z,96765.34
2023-02-11T15:08:34.524Z,96774.91
2023-02-11T15:11:04.367Z,96770.03
2023-02-11T15:13:32.856Z,96775.16
2023-02-11T15:16:04.528Z,96779.00
2023-02-11T15:18:36.320Z,96770.00
2023-02-11T15:21:04.503Z,96756.97
2023-02-11T15:23:31.163Z,96761.94
2023-02-11T15:26:02.303Z,96751.88
2023-02-11T15:28:31.154Z,96752.28
2023-02-11T15:31:00.406Z,96762.06
2023-02-11T15:33:29.448Z,96762.88
2023-02-11T15:35:56.820Z,96773.19
2023-02-11T15:38:23.825Z,96771.59
2023-02-11T15:40:55.458Z,96769.84
2023-02-11T15:43:21.934Z,96778.69
2023-02-11T15:45:58.456Z,96775.06
2023-02-11T15:48:31.846Z,96783.22
2023-02-11T15:51:01.831Z,96782.09
2023-02-11T15:53:32.777Z,96789.06
2023-02-11T15:56:07.276Z,96782.22
2023-02-11T15:58:36.492Z,96788.38
2023-02-11T16:01:03.622Z,96794.69
2023-02-11T16:03:31.910Z,96793.59
2023-02-11T16:06:18.038Z,96788.56
2023-02-11T16:08:57.859Z,96792.19
2023-02-11T16:11:28.829Z,96785.81
2023-02-11T16:13:55.333Z,96795.81
2023-02-11T16:16:24.802Z,96793.63
2023-02-11T16:19:04.347Z,96797.75
2023-02-11T16:21:38.167Z,96797.13
2023-02-11T16:24:07.624Z,96796.16
2023-02-11T16:26:38.462Z,96806.69
2023-02-11T16:29:09.676Z,96807.97
2023-02-11T16:31:39.520Z,96819.31
2023-02-11T16:34:12.943Z,96814.19
2023-02-11T16:36:39.334Z,96829.31
2023-02-11T16:39:07.182Z,96823.31
2023-02-11T16:41:33.586Z,96828.53
2023-02-11T16:44:01.630Z,96834.66
2023-02-11T16:46:28.419Z,96826.34
2023-02-11T16:48:55.819Z,96827.09
2023-02-11T16:51:22.223Z,96834.94
2023-02-11T16:53:48.575Z,96829.41
2023-02-11T16:56:17.461Z,96844.19
2023-02-11T16:58:44.028Z,96844.31
2023-02-11T17:01:13.803Z,96854.47
2023-02-11T17:03:40.635Z,96851.34
2023-02-11T17:06:09.031Z,96847.66
2023-02-11T17:08:35.536Z,96849.50
2023-02-11T17:11:02.426Z,96853.56
2023-02-11T17:13:29.467Z,96854.72
2023-02-11T17:15:55.995Z,96855.53
2023-02-11T17:18:22.568Z,96851.94
2023-02-11T17:20:49.138Z,96860.59
2023-02-11T17:23:15.605Z,96864.78
2023-02-11T17:25:42.041Z,96873.56
2023-02-11T17:28:09.058Z,96883.03
2023-02-11T17:30:36.220Z,96891.72
2023-02-11T17:33:02.652Z,96888.69
2023-02-11T17:35:29.035Z,96892.41
2023-02-11T17:37:57.245Z,96903.25
2023-02-11T17:40:23.670Z,96899.13
2023-02-11T17:42:50.230Z,96899.66
2023-02-11T17:45:16.826Z,96902.44
2023-02-11T17:47:43.922Z,96898.50
2023-02-11T17:50:11.016Z,96908.34
2023-02-11T17:52:37.502Z,96900.47
2023-02-11T17:55:05.282Z,96906.72
2023-02-11T17:57:31.814Z,96906.38
2023-02-11T17:59:58.207Z,96908.59
2023-02-11T18:02:24.784Z,96907.06
2023-02-11T18:04:52.528Z,96923.13
2023-02-11T18:07:19.789Z,96924.97
2023-02-11T18:09:46.403Z,96916.56
2023-02-11T18:12:13.023Z,96928.88
2023-02-11T18:14:41.582Z,96922.19
2023-02-11T18:17:08.357Z,96922.06
2023-02-11T18:19:35.826Z,96930.84
2023-02-11T18:22:03.578Z,96943.19
2023-02-11T18:24:30.408Z,96921.72
2023-02-11T18:26:56.984Z,96932.69
2023-02-11T18:29:26.303Z,96934.84
2023-02-11T18:31:56.187Z,96936.00
2023-02-11T18:34:22.902Z,96936.31
2023-02-11T18:36:49.421Z,96937.13
2023-02-11T18:39:16.530Z,96932.31
2023-02-11T18:41:42.892Z,96925.72
2023-02-11T18:44:10.540Z,96922.38
2023-02-11T18:46:36.964Z,96940.94
2023-02-11T18:49:03.317Z,96937.59
2023-02-11T18:51:31.737Z,96941.88
2023-02-11T18:53:58.708Z,96938.03
2023-02-11T18:56:27.034Z,96936.84
2023-02-11T18:58:55.418Z,96931.63
2023-02-11T19:01:25.103Z,96941.50
2023-02-11T19:03:51.527Z,96945.41
2023-02-11T19:06:20.008Z,96939.97
2023-02-11T19:08:46.775Z,96944.22
2023-02-11T19:11:15.471Z,96939.59
2023-02-11T19:13:42.523Z,96944.47
2023-02-11T19:16:11.375Z,96950.78
2023-02-11T19:18:38.368Z,96938.66
2023-02-11T19:21:08.954Z,96941.41
2023-02-11T19:23:35.792Z,96932.59
2023-02-11T19:26:03.790Z,96938.06
2023-02-11T19:28:30.695Z,96937.50
2023-02-11T19:30:58.032Z,96934.38
2023-02-11T19:33:24.460Z,96926.88
2023-02-11T19:35:51.170Z,96926.97
2023-02-11T19:38:18.385Z,96925.44
2023-02-11T19:40:44.866Z,96931.75
2023-02-11T19:43:11.298Z,96938.66
2023-02-11T19:45:37.926Z,96930.56
2023-02-11T19:48:05.102Z,96923.56
2023-02-11T19:50:32.720Z,96930.16
2023-02-11T19:53:01.648Z,96932.50
2023-02-11T19:55:28.108Z,96931.06
2023-02-11T19:57:54.447Z,96928.25
2023-02-11T20:00:26.559Z,96917.19
2023-02-11T20:02:52.993Z,96922.66
2023-02-11T20:05:20.218Z,96927.63
2023-02-11T20:07:46.579Z,96927.97
2023-02-11T20:10:12.990Z,96923.72
2023-02-11T20:12:39.449Z,96926.13
2023-02-11T20:15:06.393Z,96937.38
2023-02-11T20:17:32.856Z,96936.88
2023-02-11T20:19:59.356Z,96934.75
2023-02-11T20:22:26.477Z,96934.66
2023-02-11T20:24:52.991Z,96930.97
2023-02-11T20:27:20.186Z,96933.81
2023-02-11T20:29:46.775Z,96954.47
2023-02-11T20:32:13.974Z,96948.78
2023-02-11T20:34:40.463Z,96945.13
2023-02-11T20:37:07.546Z,96943.28
2023-02-11T20:39:36.501Z,96953.63
2023-02-11T20:42:02.982Z,96954.44
2023-02-11T20:44:29.460Z,96963.97
2023-02-11T20:46:55.991Z,96940.84
2023-02-11T20:49:23.760Z,96965.19
2023-02-11T20:51:51.780Z,96966.59
2023-02-11T20:54:20.203Z,96972.00
2023-02-11T20:56:48.365Z,96971.88
2023-02-11T20:59:15.844Z,96969.34
2023-02-11T21:01:43.844Z,96962.44
2023-02-11T21:04:12.650Z,96961.78
2023-02-11T21:06:41.520Z,96962.47
2023-02-11T21:09:11.813Z,96964.69
2023-02-11T21:11:38.432Z,96967.31
2023-02-11T21:14:05.600Z,96958.50
2023-02-11T21:16:32.169Z,96962.72
2023-02-11T21:18:59.769Z,96962.91
2023-02-11T21:21:26.232Z,96966.34
2023-02-11T21:23:52.992Z,96969.59
2023-02-11T21:26:19.388Z,96961.97
2023-02-11T21:28:45.799Z,96974.91
2023-02-11T21:31:20.244Z,96974.09
2023-02-11T21:33:46.796Z,96973.63
2023-02-11T21:36:14.409Z,96974.16
2023-02-11T21:38:40.808Z,96976.91
2023-02-11T21:41:07.415Z,96979.03
2023-02-11T21:43:34.788Z,96973.66
2023-02-11T21:46:05.808Z,96971.03
2023-02-11T21:48:32.888Z,96968.69
2023-02-11T21:51:01.040Z,96975.19
2023-02-11T21:53:27.422Z,96967.97
2023-02-11T21:56:02.331Z,96964.94
2023-02-11T21:58:28.774Z,96968.97
2023-02-11T22:00:55.162Z,96957.94
2023-02-11T22:03:21.555Z,96947.69
2023-02-11T22:05:48.652Z,96943.63
2023-02-11T22:08:15.063Z,96947.72
2023-02-11T22:10:41.472Z,96949.88
2023-02-11T22:13:07.950Z,96951.78
2023-02-11T22:15:34.401Z,96934.22
2023-02-11T22:18:01.029Z,96958.19
2023-02-11T22:20:27.404Z,96960.31
2023-02-11T22:22:54.420Z,96961.09
2023-02-11T22:25:20.828Z,96929.75
2023-02-11T22:27:47.216Z,96957.75
2023-02-11T22:30:13.872Z,96966.25
2023-02-11T22:32:41.749Z,96961.28
2023-02-11T22:35:08.184Z,96955.41
2023-02-11T22:37:34.559Z,96961.63
2023-02-11T22:40:01.620Z,96960.41
2023-02-11T22:42:28.036Z,96956.34
2023-02-11T22:44:54.437Z,96959.38
2023-02-11T22:47:20.787Z,96963.94
2023-02-11T22:49:47.184Z,96975.28
2023-02-11T22:52:13.552Z,96951.16
2023-02-11T22:54:39.955Z,96964.94
2023-02-11T22:57:07.117Z,96970.72
2023-02-11T22:59:33.523Z,96976.03
2023-02-11T23:02:00.046Z,96982.94
2023-02-11T23:04:26.539Z,96978.88
2023-02-11T23:06:52.911Z,96982.22
2023-02-11T23:09:19.406Z,96986.22
2023-02-11T23:11:47.770Z,96989.78
2023-02-11T23:14:14.829Z,96985.66
2023-02-11T23:16:41.437Z,96990.47
2023-02-11T23:19:10.079Z,96996.59
2023-02-11T23:21:38.162Z,96996.25
2023-02-11T23:24:06.926Z,96993.09
2023-02-11T23:26:34.168Z,96980.09
2023-02-11T23:29:00.751Z,96988.78
2023-02-11T23:31:30.606Z,96992.56
2023-02-11T23:33:57.175Z,96989.88
2023-02-11T23:36:23.987Z,96988.06
2023-02-11T23:38:50.659Z,96996.88
2023-02-11T23:41:17.570Z,97003.81
2023-02-11T23:43:44.228Z,97005.66
2023-02-11T23:46:10.824Z,96992.78
2023-02-11T23:48:39.572Z,96998.97
2023-02-11T23:51:06.007Z,96989.66
2023-02-11T23:53:32.563Z,97000.88
2023-02-11T23:55:58.960Z,97010.88
2023-02-11T23:58:25.362Z,97011.53
